SBCZ/CZS METAR and TAF weather

Enter ICAO airport designator
Station Type Date Time Source
SBCZ METAR 2022/01/27 22:00 UTC NOAA

SBCZ 272200Z 29006KT 9999 FEW030 FEW033TCU SCT100 29/23 Q1006


Station Type Date Time Source
SBCZ Decoded METAR 2022/01/27 22:00 UTC NOAA

Cruzeiro Do Sul, Brazil (SBCZ) 07-38S 072-40W
Jan 27, 2022 - 05:00 PM EST / 2022.01.27 2200 UTC
Wind: from the WNW (290 degrees) at 7 MPH (6 KT):0
Visibility: greater than 7 mile(s):0
Sky conditions: partly cloudy
Weather: Towering cumulus clouds observed
Temperature: 84 F (29 C)
Dew Point: 73 F (23 C)
Relative Humidity: 70%
Pressure (altimeter): 29.71 in. Hg (1006 hPa)
ob: SBCZ 272200Z 29006KT 9999 FEW030 FEW033TCU SCT100 29/23 Q1006
cycle: 22

Station Type Date Time Source
SBCZ TAF 2022/01/27 12:03 UTC NOAA

TAF TAF SBCZ 270900Z 2712/2812 23005KT 9999 SCT010 TN23/2808Z TX25/2812Z
BECMG 2720/2722 30006KT SCT020 FEW030TCU
BECMG 2800/2802 02005KT
BECMG 2810/2812 22005KT SCT015
RMK PGY

Example: see airport list